sensor_id;sensor_type;location;lat;lon;timestamp;P1;durP1;ratioP1;P2;durP2;ratioP2
9972;SDS011;5027;53.560;10.062;2022-10-17T00:02:10;7.43;;;4.10;;
9972;SDS011;5027;53.560;10.062;2022-10-17T00:04:36;6.90;;;4.33;;
9972;SDS011;5027;53.560;10.062;2022-10-17T00:07:03;8.40;;;5.03;;
9972;SDS011;5027;53.560;10.062;2022-10-17T00:09:29;7.53;;;5.27;;
9972;SDS011;5027;53.560;10.062;2022-10-17T00:11:56;6.70;;;4.10;;
9972;SDS011;5027;53.560;10.062;2022-10-17T00:14:23;6.63;;;3.80;;
9972;SDS011;5027;53.560;10.062;2022-10-17T00:16:49;7.77;;;4.50;;
9972;SDS011;5027;53.560;10.062;2022-10-17T00:19:16;7.17;;;4.97;;
9972;SDS011;5027;53.560;10.062;2022-10-17T00:21:42;6.13;;;4.07;;
9972;SDS011;5027;53.560;10.062;2022-10-17T00:24:09;7.70;;;3.63;;
9972;SDS011;5027;53.560;10.062;2022-10-17T00:26:36;6.87;;;4.00;;
9972;SDS011;5027;53.560;10.062;2022-10-17T00:29:03;5.37;;;3.47;;
9972;SDS011;5027;53.560;10.062;2022-10-17T00:31:30;8.10;;;4.47;;
9972;SDS011;5027;53.560;10.062;2022-10-17T00:33:56;8.63;;;3.67;;
9972;SDS011;5027;53.560;10.062;2022-10-17T00:36:24;6.93;;;3.30;;
9972;SDS011;5027;53.560;10.062;2022-10-17T00:38:53;6.07;;;3.63;;
9972;SDS011;5027;53.560;10.062;2022-10-17T00:41:22;5.40;;;3.77;;
9972;SDS011;5027;53.560;10.062;2022-10-17T00:43:58;8.43;;;3.97;;
9972;SDS011;5027;53.560;10.062;2022-10-17T00:46:33;4.33;;;3.23;;
9972;SDS011;5027;53.560;10.062;2022-10-17T00:49:08;5.57;;;3.67;;
9972;SDS011;5027;53.560;10.062;2022-10-17T00:51:37;8.50;;;3.40;;
9972;SDS011;5027;53.560;10.062;2022-10-17T00:54:08;10.10;;;4.00;;
9972;SDS011;5027;53.560;10.062;2022-10-17T00:56:36;8.40;;;3.30;;
9972;SDS011;5027;53.560;10.062;2022-10-17T00:59:06;9.33;;;3.87;;
9972;SDS011;5027;53.560;10.062;2022-10-17T01:01:36;8.47;;;3.97;;
9972;SDS011;5027;53.560;10.062;2022-10-17T01:04:05;7.77;;;3.90;;
9972;SDS011;5027;53.560;10.062;2022-10-17T01:06:32;7.50;;;3.50;;
9972;SDS011;5027;53.560;10.062;2022-10-17T01:08:58;5.50;;;3.50;;
9972;SDS011;5027;53.560;10.062;2022-10-17T01:14:09;5.40;;;3.30;;
9972;SDS011;5027;53.560;10.062;2022-10-17T01:16:53;6.73;;;3.60;;
9972;SDS011;5027;53.560;10.062;2022-10-17T01:19:31;5.60;;;3.13;;
9972;SDS011;5027;53.560;10.062;2022-10-17T01:22:14;5.90;;;3.53;;
9972;SDS011;5027;53.560;10.062;2022-10-17T01:27:47;8.03;;;3.70;;
9972;SDS011;5027;53.560;10.062;2022-10-17T01:33:40;8.07;;;3.30;;
9972;SDS011;5027;53.560;10.062;2022-10-17T01:36:25;4.63;;;2.93;;
9972;SDS011;5027;53.560;10.062;2022-10-17T01:39:24;8.17;;;3.27;;
9972;SDS011;5027;53.560;10.062;2022-10-17T01:44:57;9.40;;;3.00;;
9972;SDS011;5027;53.560;10.062;2022-10-17T01:47:46;7.60;;;2.97;;
9972;SDS011;5027;53.560;10.062;2022-10-17T01:50:22;5.57;;;2.90;;
9972;SDS011;5027;53.560;10.062;2022-10-17T01:52:58;5.40;;;3.47;;
9972;SDS011;5027;53.560;10.062;2022-10-17T01:55:38;6.63;;;3.27;;
9972;SDS011;5027;53.560;10.062;2022-10-17T02:00:47;7.63;;;3.70;;
9972;SDS011;5027;53.560;10.062;2022-10-17T02:03:16;7.50;;;3.00;;
9972;SDS011;5027;53.560;10.062;2022-10-17T02:05:44;6.43;;;2.83;;
9972;SDS011;5027;53.560;10.062;2022-10-17T02:08:11;3.73;;;2.50;;
9972;SDS011;5027;53.560;10.062;2022-10-17T02:24:44;6.27;;;3.27;;
9972;SDS011;5027;53.560;10.062;2022-10-17T02:30:15;5.63;;;2.80;;
9972;SDS011;5027;53.560;10.062;2022-10-17T02:33:00;6.97;;;2.37;;
9972;SDS011;5027;53.560;10.062;2022-10-17T02:35:32;3.80;;;2.40;;
9972;SDS011;5027;53.560;10.062;2022-10-17T02:38:04;6.10;;;2.70;;
9972;SDS011;5027;53.560;10.062;2022-10-17T02:40:34;5.17;;;2.33;;
9972;SDS011;5027;53.560;10.062;2022-10-17T02:43:02;7.60;;;3.97;;
9972;SDS011;5027;53.560;10.062;2022-10-17T02:45:30;5.50;;;2.60;;
9972;SDS011;5027;53.560;10.062;2022-10-17T02:50:52;3.90;;;2.60;;
9972;SDS011;5027;53.560;10.062;2022-10-17T02:59:33;4.17;;;2.33;;
9972;SDS011;5027;53.560;10.062;2022-10-17T03:02:02;4.37;;;2.57;;
9972;SDS011;5027;53.560;10.062;2022-10-17T03:04:30;5.70;;;2.60;;
9972;SDS011;5027;53.560;10.062;2022-10-17T03:06:57;5.80;;;3.20;;
9972;SDS011;5027;53.560;10.062;2022-10-17T03:09:24;6.63;;;2.93;;
9972;SDS011;5027;53.560;10.062;2022-10-17T03:11:51;5.33;;;2.37;;
9972;SDS011;5027;53.560;10.062;2022-10-17T03:14:18;4.60;;;2.77;;
9972;SDS011;5027;53.560;10.062;2022-10-17T03:16:45;3.20;;;2.37;;
9972;SDS011;5027;53.560;10.062;2022-10-17T03:19:14;4.43;;;2.20;;
9972;SDS011;5027;53.560;10.062;2022-10-17T03:21:40;4.20;;;2.93;;
9972;SDS011;5027;53.560;10.062;2022-10-17T03:24:07;5.63;;;2.70;;
9972;SDS011;5027;53.560;10.062;2022-10-17T03:26:34;5.07;;;2.40;;
9972;SDS011;5027;53.560;10.062;2022-10-17T03:29:01;4.53;;;2.60;;
9972;SDS011;5027;53.560;10.062;2022-10-17T03:31:29;5.83;;;3.20;;
9972;SDS011;5027;53.560;10.062;2022-10-17T03:33:56;8.10;;;3.80;;
9972;SDS011;5027;53.560;10.062;2022-10-17T03:36:23;4.37;;;2.23;;
9972;SDS011;5027;53.560;10.062;2022-10-17T03:38:53;5.23;;;2.80;;
9972;SDS011;5027;53.560;10.062;2022-10-17T03:41:21;8.37;;;3.17;;
9972;SDS011;5027;53.560;10.062;2022-10-17T03:43:48;5.07;;;2.87;;
9972;SDS011;5027;53.560;10.062;2022-10-17T03:46:15;6.10;;;2.60;;
9972;SDS011;5027;53.560;10.062;2022-10-17T03:48:43;5.17;;;2.70;;
9972;SDS011;5027;53.560;10.062;2022-10-17T03:51:10;4.40;;;2.70;;
9972;SDS011;5027;53.560;10.062;2022-10-17T03:53:42;7.13;;;2.63;;
9972;SDS011;5027;53.560;10.062;2022-10-17T03:56:13;6.87;;;4.10;;
9972;SDS011;5027;53.560;10.062;2022-10-17T03:58:43;5.27;;;3.20;;
9972;SDS011;5027;53.560;10.062;2022-10-17T04:01:12;7.40;;;3.00;;
9972;SDS011;5027;53.560;10.062;2022-10-17T04:03:41;4.53;;;2.80;;
9972;SDS011;5027;53.560;10.062;2022-10-17T04:06:09;5.93;;;2.87;;
9972;SDS011;5027;53.560;10.062;2022-10-17T04:08:39;7.07;;;2.43;;
9972;SDS011;5027;53.560;10.062;2022-10-17T04:11:13;5.93;;;2.93;;
9972;SDS011;5027;53.560;10.062;2022-10-17T04:13:41;3.63;;;2.73;;
9972;SDS011;5027;53.560;10.062;2022-10-17T04:16:10;3.57;;;3.27;;
9972;SDS011;5027;53.560;10.062;2022-10-17T04:18:51;6.60;;;3.50;;
9972;SDS011;5027;53.560;10.062;2022-10-17T04:21:24;2.80;;;2.30;;
9972;SDS011;5027;53.560;10.062;2022-10-17T04:23:53;2.87;;;2.17;;
9972;SDS011;5027;53.560;10.062;2022-10-17T04:26:37;4.43;;;2.40;;
9972;SDS011;5027;53.560;10.062;2022-10-17T04:29:04;3.57;;;2.47;;
9972;SDS011;5027;53.560;10.062;2022-10-17T04:31:31;5.00;;;2.40;;
9972;SDS011;5027;53.560;10.062;2022-10-17T04:34:08;7.43;;;2.90;;
9972;SDS011;5027;53.560;10.062;2022-10-17T04:36:36;4.43;;;2.47;;
9972;SDS011;5027;53.560;10.062;2022-10-17T04:39:03;2.90;;;2.17;;
9972;SDS011;5027;53.560;10.062;2022-10-17T04:41:31;3.40;;;2.20;;
9972;SDS011;5027;53.560;10.062;2022-10-17T04:43:58;3.67;;;2.47;;
9972;SDS011;5027;53.560;10.062;2022-10-17T04:46:26;5.03;;;2.47;;
9972;SDS011;5027;53.560;10.062;2022-10-17T04:48:52;7.63;;;3.37;;
9972;SDS011;5027;53.560;10.062;2022-10-17T04:51:20;5.20;;;4.00;;
9972;SDS011;5027;53.560;10.062;2022-10-17T04:54:10;6.53;;;4.50;;
9972;SDS011;5027;53.560;10.062;2022-10-17T04:56:40;5.03;;;2.50;;
9972;SDS011;5027;53.560;10.062;2022-10-17T04:59:07;3.03;;;2.57;;
9972;SDS011;5027;53.560;10.062;2022-10-17T05:01:35;5.47;;;2.50;;
9972;SDS011;5027;53.560;10.062;2022-10-17T05:04:02;6.50;;;3.20;;
9972;SDS011;5027;53.560;10.062;2022-10-17T05:06:29;3.37;;;2.97;;
9972;SDS011;5027;53.560;10.062;2022-10-17T05:09:13;4.47;;;3.03;;
9972;SDS011;5027;53.560;10.062;2022-10-17T05:11:40;4.87;;;2.63;;
9972;SDS011;5027;53.560;10.062;2022-10-17T05:14:08;4.43;;;2.70;;
9972;SDS011;5027;53.560;10.062;2022-10-17T05:16:36;5.43;;;2.30;;
9972;SDS011;5027;53.560;10.062;2022-10-17T05:19:03;4.33;;;3.40;;
9972;SDS011;5027;53.560;10.062;2022-10-17T05:21:37;8.37;;;3.57;;
9972;SDS011;5027;53.560;10.062;2022-10-17T05:24:08;4.60;;;3.20;;
9972;SDS011;5027;53.560;10.062;2022-10-17T05:26:37;9.50;;;2.97;;
9972;SDS011;5027;53.560;10.062;2022-10-17T05:29:04;4.67;;;3.00;;
9972;SDS011;5027;53.560;10.062;2022-10-17T05:31:35;3.20;;;2.47;;
9972;SDS011;5027;53.560;10.062;2022-10-17T05:34:04;4.93;;;2.83;;
9972;SDS011;5027;53.560;10.062;2022-10-17T05:36:35;6.00;;;2.63;;
9972;SDS011;5027;53.560;10.062;2022-10-17T05:39:03;5.13;;;2.93;;
9972;SDS011;5027;53.560;10.062;2022-10-17T05:41:32;4.90;;;3.07;;
9972;SDS011;5027;53.560;10.062;2022-10-17T05:43:59;4.43;;;3.13;;
9972;SDS011;5027;53.560;10.062;2022-10-17T05:46:40;4.97;;;2.60;;
9972;SDS011;5027;53.560;10.062;2022-10-17T05:49:08;4.83;;;2.57;;
9972;SDS011;5027;53.560;10.062;2022-10-17T05:51:55;4.80;;;2.73;;
9972;SDS011;5027;53.560;10.062;2022-10-17T05:54:23;6.17;;;2.60;;
9972;SDS011;5027;53.560;10.062;2022-10-17T05:56:50;3.00;;;2.30;;
9972;SDS011;5027;53.560;10.062;2022-10-17T05:59:19;3.37;;;2.53;;
9972;SDS011;5027;53.560;10.062;2022-10-17T06:01:50;3.07;;;2.53;;
9972;SDS011;5027;53.560;10.062;2022-10-17T06:04:18;6.67;;;2.37;;
9972;SDS011;5027;53.560;10.062;2022-10-17T06:06:48;3.80;;;2.53;;
9972;SDS011;5027;53.560;10.062;2022-10-17T06:09:14;5.37;;;2.80;;
9972;SDS011;5027;53.560;10.062;2022-10-17T06:11:45;6.70;;;2.90;;
9972;SDS011;5027;53.560;10.062;2022-10-17T06:14:13;3.33;;;2.67;;
9972;SDS011;5027;53.560;10.062;2022-10-17T06:16:40;4.03;;;2.60;;
9972;SDS011;5027;53.560;10.062;2022-10-17T06:19:08;4.57;;;2.93;;
9972;SDS011;5027;53.560;10.062;2022-10-17T06:21:37;4.93;;;2.87;;
9972;SDS011;5027;53.560;10.062;2022-10-17T06:24:18;6.60;;;2.67;;
9972;SDS011;5027;53.560;10.062;2022-10-17T06:26:45;8.63;;;2.70;;
9972;SDS011;5027;53.560;10.062;2022-10-17T06:29:14;6.93;;;2.87;;
9972;SDS011;5027;53.560;10.062;2022-10-17T06:31:45;11.17;;;2.87;;
9972;SDS011;5027;53.560;10.062;2022-10-17T06:34:12;9.03;;;2.50;;
9972;SDS011;5027;53.560;10.062;2022-10-17T06:36:39;6.93;;;2.83;;
9972;SDS011;5027;53.560;10.062;2022-10-17T06:39:07;8.20;;;2.90;;
9972;SDS011;5027;53.560;10.062;2022-10-17T06:41:46;7.57;;;2.80;;
9972;SDS011;5027;53.560;10.062;2022-10-17T06:44:16;5.63;;;3.00;;
9972;SDS011;5027;53.560;10.062;2022-10-17T06:47:01;6.77;;;2.83;;
9972;SDS011;5027;53.560;10.062;2022-10-17T06:49:28;7.00;;;3.13;;
9972;SDS011;5027;53.560;10.062;2022-10-17T06:52:12;6.87;;;3.03;;
9972;SDS011;5027;53.560;10.062;2022-10-17T06:54:49;7.57;;;3.23;;
9972;SDS011;5027;53.560;10.062;2022-10-17T06:57:38;11.70;;;3.30;;
9972;SDS011;5027;53.560;10.062;2022-10-17T07:00:35;10.80;;;3.23;;
9972;SDS011;5027;53.560;10.062;2022-10-17T07:03:02;9.93;;;3.27;;
9972;SDS011;5027;53.560;10.062;2022-10-17T07:05:29;9.03;;;3.53;;
9972;SDS011;5027;53.560;10.062;2022-10-17T07:07:55;6.63;;;3.10;;
9972;SDS011;5027;53.560;10.062;2022-10-17T07:10:22;8.97;;;3.20;;
9972;SDS011;5027;53.560;10.062;2022-10-17T07:12:49;10.17;;;3.20;;
9972;SDS011;5027;53.560;10.062;2022-10-17T07:15:15;8.23;;;3.00;;
9972;SDS011;5027;53.560;10.062;2022-10-17T07:17:46;9.20;;;2.90;;
9972;SDS011;5027;53.560;10.062;2022-10-17T07:20:16;13.67;;;3.33;;
9972;SDS011;5027;53.560;10.062;2022-10-17T07:22:44;3.47;;;2.47;;
9972;SDS011;5027;53.560;10.062;2022-10-17T07:25:11;5.57;;;2.80;;
9972;SDS011;5027;53.560;10.062;2022-10-17T07:27:50;3.17;;;2.60;;
9972;SDS011;5027;53.560;10.062;2022-10-17T07:30:19;4.97;;;3.00;;
9972;SDS011;5027;53.560;10.062;2022-10-17T07:32:52;8.03;;;2.90;;
9972;SDS011;5027;53.560;10.062;2022-10-17T07:35:19;3.43;;;2.60;;
9972;SDS011;5027;53.560;10.062;2022-10-17T07:37:46;5.87;;;2.97;;
9972;SDS011;5027;53.560;10.062;2022-10-17T07:40:16;4.67;;;2.60;;
9972;SDS011;5027;53.560;10.062;2022-10-17T07:42:42;6.50;;;3.00;;
9972;SDS011;5027;53.560;10.062;2022-10-17T07:45:10;3.27;;;2.80;;
9972;SDS011;5027;53.560;10.062;2022-10-17T07:47:37;3.33;;;2.67;;
9972;SDS011;5027;53.560;10.062;2022-10-17T07:50:06;5.57;;;2.80;;
9972;SDS011;5027;53.560;10.062;2022-10-17T07:52:33;4.80;;;2.57;;
9972;SDS011;5027;53.560;10.062;2022-10-17T07:55:00;6.17;;;3.03;;
9972;SDS011;5027;53.560;10.062;2022-10-17T07:57:27;3.50;;;2.57;;
9972;SDS011;5027;53.560;10.062;2022-10-17T07:59:53;7.63;;;2.83;;
9972;SDS011;5027;53.560;10.062;2022-10-17T08:02:21;4.57;;;2.73;;
9972;SDS011;5027;53.560;10.062;2022-10-17T08:04:52;6.37;;;3.13;;
9972;SDS011;5027;53.560;10.062;2022-10-17T08:07:19;7.93;;;3.30;;
9972;SDS011;5027;53.560;10.062;2022-10-17T08:09:52;4.17;;;2.70;;
9972;SDS011;5027;53.560;10.062;2022-10-17T08:12:18;3.53;;;2.67;;
9972;SDS011;5027;53.560;10.062;2022-10-17T08:14:45;5.13;;;3.10;;
9972;SDS011;5027;53.560;10.062;2022-10-17T08:17:13;4.40;;;2.60;;
9972;SDS011;5027;53.560;10.062;2022-10-17T08:19:39;4.57;;;2.60;;
9972;SDS011;5027;53.560;10.062;2022-10-17T08:22:06;6.17;;;2.77;;
9972;SDS011;5027;53.560;10.062;2022-10-17T08:24:33;5.10;;;2.73;;
9972;SDS011;5027;53.560;10.062;2022-10-17T08:27:00;5.40;;;2.83;;
9972;SDS011;5027;53.560;10.062;2022-10-17T08:29:27;5.37;;;2.97;;
9972;SDS011;5027;53.560;10.062;2022-10-17T08:31:53;5.90;;;3.13;;
9972;SDS011;5027;53.560;10.062;2022-10-17T08:34:27;6.53;;;3.30;;
9972;SDS011;5027;53.560;10.062;2022-10-17T08:36:53;7.97;;;3.17;;
9972;SDS011;5027;53.560;10.062;2022-10-17T08:39:20;5.47;;;2.77;;
9972;SDS011;5027;53.560;10.062;2022-10-17T08:41:51;3.47;;;2.77;;
9972;SDS011;5027;53.560;10.062;2022-10-17T08:47:04;6.30;;;3.27;;
9972;SDS011;5027;53.560;10.062;2022-10-17T08:49:48;6.93;;;3.27;;
9972;SDS011;5027;53.560;10.062;2022-10-17T08:55:00;9.13;;;3.60;;
9972;SDS011;5027;53.560;10.062;2022-10-17T08:57:27;10.37;;;3.67;;
9972;SDS011;5027;53.560;10.062;2022-10-17T08:59:54;6.23;;;3.97;;
9972;SDS011;5027;53.560;10.062;2022-10-17T09:02:33;5.53;;;3.70;;
9972;SDS011;5027;53.560;10.062;2022-10-17T09:08:18;6.37;;;3.80;;
9972;SDS011;5027;53.560;10.062;2022-10-17T09:14:53;4.70;;;3.20;;
9972;SDS011;5027;53.560;10.062;2022-10-17T09:17:12;4.53;;;3.30;;
9972;SDS011;5027;53.560;10.062;2022-10-17T09:23:24;4.13;;;3.57;;
9972;SDS011;5027;53.560;10.062;2022-10-17T09:25:41;7.17;;;3.60;;
9972;SDS011;5027;53.560;10.062;2022-10-17T09:31:06;8.40;;;3.70;;
9972;SDS011;5027;53.560;10.062;2022-10-17T09:33:46;4.83;;;3.53;;
9972;SDS011;5027;53.560;10.062;2022-10-17T09:36:21;5.30;;;3.37;;
9972;SDS011;5027;53.560;10.062;2022-10-17T09:38:51;3.80;;;3.37;;
9972;SDS011;5027;53.560;10.062;2022-10-17T09:41:21;5.17;;;3.63;;
9972;SDS011;5027;53.560;10.062;2022-10-17T09:44:14;4.27;;;3.40;;
9972;SDS011;5027;53.560;10.062;2022-10-17T09:46:57;6.70;;;3.83;;
9972;SDS011;5027;53.560;10.062;2022-10-17T09:49:28;5.70;;;3.70;;
9972;SDS011;5027;53.560;10.062;2022-10-17T09:52:02;4.00;;;3.40;;
9972;SDS011;5027;53.560;10.062;2022-10-17T09:57:18;7.03;;;3.67;;
9972;SDS011;5027;53.560;10.062;2022-10-17T09:59:59;4.50;;;3.30;;
9972;SDS011;5027;53.560;10.062;2022-10-17T10:02:38;7.70;;;3.90;;
9972;SDS011;5027;53.560;10.062;2022-10-17T10:05:16;5.07;;;4.00;;
9972;SDS011;5027;53.560;10.062;2022-10-17T10:07:57;6.40;;;3.70;;
9972;SDS011;5027;53.560;10.062;2022-10-17T10:10:28;5.20;;;3.57;;
9972;SDS011;5027;53.560;10.062;2022-10-17T10:15:35;5.73;;;3.80;;
9972;SDS011;5027;53.560;10.062;2022-10-17T10:21:02;6.30;;;3.60;;
9972;SDS011;5027;53.560;10.062;2022-10-17T10:23:30;6.63;;;4.43;;
9972;SDS011;5027;53.560;10.062;2022-10-17T10:25:58;7.93;;;4.33;;
9972;SDS011;5027;53.560;10.062;2022-10-17T10:28:37;8.20;;;4.57;;
9972;SDS011;5027;53.560;10.062;2022-10-17T10:31:05;9.73;;;3.97;;
9972;SDS011;5027;53.560;10.062;2022-10-17T10:33:35;7.27;;;3.57;;
9972;SDS011;5027;53.560;10.062;2022-10-17T10:36:14;8.10;;;3.87;;
9972;SDS011;5027;53.560;10.062;2022-10-17T10:38:41;7.90;;;4.13;;
9972;SDS011;5027;53.560;10.062;2022-10-17T10:41:09;7.93;;;4.10;;
9972;SDS011;5027;53.560;10.062;2022-10-17T10:43:37;6.50;;;3.17;;
9972;SDS011;5027;53.560;10.062;2022-10-17T10:46:20;6.47;;;3.80;;
9972;SDS011;5027;53.560;10.062;2022-10-17T10:48:54;11.97;;;3.70;;
9972;SDS011;5027;53.560;10.062;2022-10-17T10:51:31;4.73;;;3.60;;
9972;SDS011;5027;53.560;10.062;2022-10-17T10:54:13;4.77;;;4.03;;
9972;SDS011;5027;53.560;10.062;2022-10-17T10:56:45;8.10;;;4.13;;
9972;SDS011;5027;53.560;10.062;2022-10-17T11:02:10;8.33;;;4.07;;
9972;SDS011;5027;53.560;10.062;2022-10-17T11:04:51;6.17;;;4.00;;
9972;SDS011;5027;53.560;10.062;2022-10-17T11:07:33;8.43;;;3.97;;
9972;SDS011;5027;53.560;10.062;2022-10-17T11:12:51;7.37;;;4.30;;
9972;SDS011;5027;53.560;10.062;2022-10-17T11:15:26;11.40;;;4.57;;
9972;SDS011;5027;53.560;10.062;2022-10-17T11:18:06;9.30;;;4.83;;
9972;SDS011;5027;53.560;10.062;2022-10-17T11:23:47;8.77;;;4.93;;
9972;SDS011;5027;53.560;10.062;2022-10-17T11:26:19;10.03;;;4.47;;
9972;SDS011;5027;53.560;10.062;2022-10-17T11:28:52;6.80;;;4.60;;
9972;SDS011;5027;53.560;10.062;2022-10-17T11:31:20;7.27;;;4.30;;
9972;SDS011;5027;53.560;10.062;2022-10-17T11:33:51;12.07;;;5.23;;
9972;SDS011;5027;53.560;10.062;2022-10-17T11:36:33;7.13;;;4.63;;
9972;SDS011;5027;53.560;10.062;2022-10-17T11:39:06;10.97;;;4.73;;
9972;SDS011;5027;53.560;10.062;2022-10-17T11:41:51;8.77;;;4.30;;
9972;SDS011;5027;53.560;10.062;2022-10-17T11:44:25;7.50;;;4.93;;
9972;SDS011;5027;53.560;10.062;2022-10-17T11:47:04;4.83;;;4.33;;
9972;SDS011;5027;53.560;10.062;2022-10-17T11:49:46;6.33;;;4.97;;
9972;SDS011;5027;53.560;10.062;2022-10-17T11:52:36;7.33;;;4.87;;
9972;SDS011;5027;53.560;10.062;2022-10-17T11:55:23;6.67;;;4.50;;
9972;SDS011;5027;53.560;10.062;2022-10-17T11:58:38;8.73;;;4.30;;
9972;SDS011;5027;53.560;10.062;2022-10-17T12:04:03;9.77;;;4.53;;
9972;SDS011;5027;53.560;10.062;2022-10-17T12:06:55;10.70;;;4.63;;
9972;SDS011;5027;53.560;10.062;2022-10-17T12:20:31;12.70;;;5.13;;
9972;SDS011;5027;53.560;10.062;2022-10-17T12:25:37;8.03;;;4.77;;
9972;SDS011;5027;53.560;10.062;2022-10-17T12:28:25;10.37;;;4.30;;
9972;SDS011;5027;53.560;10.062;2022-10-17T12:31:03;9.43;;;4.57;;
9972;SDS011;5027;53.560;10.062;2022-10-17T12:38:51;7.83;;;4.10;;
9972;SDS011;5027;53.560;10.062;2022-10-17T12:46:41;7.67;;;4.70;;
9972;SDS011;5027;53.560;10.062;2022-10-17T12:49:37;14.07;;;4.33;;
9972;SDS011;5027;53.560;10.062;2022-10-17T12:52:15;7.20;;;4.50;;
9972;SDS011;5027;53.560;10.062;2022-10-17T12:54:43;7.43;;;4.20;;
9972;SDS011;5027;53.560;10.062;2022-10-17T13:00:28;5.83;;;5.03;;
9972;SDS011;5027;53.560;10.062;2022-10-17T13:05:48;6.80;;;5.10;;
9972;SDS011;5027;53.560;10.062;2022-10-17T13:08:27;5.40;;;4.77;;
9972;SDS011;5027;53.560;10.062;2022-10-17T13:10:57;7.63;;;4.90;;
9972;SDS011;5027;53.560;10.062;2022-10-17T13:13:34;7.63;;;4.87;;
9972;SDS011;5027;53.560;10.062;2022-10-17T13:16:31;6.57;;;4.90;;
9972;SDS011;5027;53.560;10.062;2022-10-17T13:19:12;11.57;;;5.43;;
9972;SDS011;5027;53.560;10.062;2022-10-17T13:21:54;36.67;;;11.40;;
9972;SDS011;5027;53.560;10.062;2022-10-17T13:24:37;18.00;;;9.43;;
9972;SDS011;5027;53.560;10.062;2022-10-17T13:29:50;12.10;;;7.63;;
9972;SDS011;5027;53.560;10.062;2022-10-17T13:32:17;9.20;;;6.97;;
9972;SDS011;5027;53.560;10.062;2022-10-17T13:34:43;13.83;;;8.10;;
9972;SDS011;5027;53.560;10.062;2022-10-17T13:37:11;11.10;;;7.17;;
9972;SDS011;5027;53.560;10.062;2022-10-17T13:39:41;9.00;;;6.90;;
9972;SDS011;5027;53.560;10.062;2022-10-17T13:42:25;8.87;;;6.60;;
9972;SDS011;5027;53.560;10.062;2022-10-17T13:44:55;9.83;;;7.07;;
9972;SDS011;5027;53.560;10.062;2022-10-17T13:47:23;10.67;;;7.10;;
9972;SDS011;5027;53.560;10.062;2022-10-17T13:49:57;8.20;;;7.40;;
9972;SDS011;5027;53.560;10.062;2022-10-17T13:52:25;11.90;;;7.50;;
9972;SDS011;5027;53.560;10.062;2022-10-17T13:54:55;9.60;;;7.10;;
9972;SDS011;5027;53.560;10.062;2022-10-17T13:57:42;11.00;;;7.90;;
9972;SDS011;5027;53.560;10.062;2022-10-17T14:00:17;11.80;;;7.23;;
9972;SDS011;5027;53.560;10.062;2022-10-17T14:02:46;9.17;;;7.27;;
9972;SDS011;5027;53.560;10.062;2022-10-17T14:05:15;11.20;;;7.70;;
9972;SDS011;5027;53.560;10.062;2022-10-17T14:10:37;13.53;;;7.40;;
9972;SDS011;5027;53.560;10.062;2022-10-17T14:13:06;12.73;;;8.47;;
9972;SDS011;5027;53.560;10.062;2022-10-17T14:15:34;9.37;;;7.30;;
9972;SDS011;5027;53.560;10.062;2022-10-17T14:18:05;13.03;;;7.43;;
9972;SDS011;5027;53.560;10.062;2022-10-17T14:20:34;10.63;;;7.30;;
9972;SDS011;5027;53.560;10.062;2022-10-17T14:23:32;12.00;;;8.33;;
9972;SDS011;5027;53.560;10.062;2022-10-17T14:28:42;12.37;;;9.00;;
9972;SDS011;5027;53.560;10.062;2022-10-17T14:33:44;8.90;;;8.00;;
9972;SDS011;5027;53.560;10.062;2022-10-17T14:36:16;10.70;;;7.27;;
9972;SDS011;5027;53.560;10.062;2022-10-17T14:38:45;13.33;;;8.63;;
9972;SDS011;5027;53.560;10.062;2022-10-17T14:41:25;12.80;;;7.77;;
9972;SDS011;5027;53.560;10.062;2022-10-17T14:44:13;9.90;;;7.27;;
9972;SDS011;5027;53.560;10.062;2022-10-17T14:46:47;10.73;;;7.90;;
9972;SDS011;5027;53.560;10.062;2022-10-17T14:49:30;12.27;;;8.60;;
9972;SDS011;5027;53.560;10.062;2022-10-17T14:52:10;9.43;;;8.20;;
9972;SDS011;5027;53.560;10.062;2022-10-17T14:54:44;9.37;;;8.37;;
9972;SDS011;5027;53.560;10.062;2022-10-17T14:57:14;10.77;;;8.47;;
9972;SDS011;5027;53.560;10.062;2022-10-17T14:59:43;10.10;;;8.10;;
9972;SDS011;5027;53.560;10.062;2022-10-17T15:02:20;9.57;;;8.20;;
9972;SDS011;5027;53.560;10.062;2022-10-17T15:04:47;9.40;;;8.37;;
9972;SDS011;5027;53.560;10.062;2022-10-17T15:07:14;11.13;;;10.03;;
9972;SDS011;5027;53.560;10.062;2022-10-17T15:09:42;9.87;;;7.90;;
9972;SDS011;5027;53.560;10.062;2022-10-17T15:12:12;8.87;;;7.77;;
9972;SDS011;5027;53.560;10.062;2022-10-17T15:14:43;8.63;;;7.87;;
9972;SDS011;5027;53.560;10.062;2022-10-17T15:17:14;9.67;;;8.67;;
9972;SDS011;5027;53.560;10.062;2022-10-17T15:19:58;10.57;;;9.33;;
9972;SDS011;5027;53.560;10.062;2022-10-17T15:22:24;9.70;;;8.70;;
9972;SDS011;5027;53.560;10.062;2022-10-17T15:24:51;11.57;;;9.57;;
9972;SDS011;5027;53.560;10.062;2022-10-17T15:27:21;11.63;;;10.53;;
9972;SDS011;5027;53.560;10.062;2022-10-17T15:29:49;11.87;;;8.40;;
9972;SDS011;5027;53.560;10.062;2022-10-17T15:32:17;10.63;;;9.63;;
9972;SDS011;5027;53.560;10.062;2022-10-17T15:34:44;8.80;;;7.93;;
9972;SDS011;5027;53.560;10.062;2022-10-17T15:37:21;14.03;;;9.93;;
9972;SDS011;5027;53.560;10.062;2022-10-17T15:39:53;10.13;;;9.23;;
9972;SDS011;5027;53.560;10.062;2022-10-17T15:42:21;10.67;;;8.87;;
9972;SDS011;5027;53.560;10.062;2022-10-17T15:44:51;21.03;;;18.90;;
9972;SDS011;5027;53.560;10.062;2022-10-17T15:47:28;9.67;;;8.20;;
9972;SDS011;5027;53.560;10.062;2022-10-17T15:49:59;9.20;;;8.30;;
9972;SDS011;5027;53.560;10.062;2022-10-17T15:52:26;12.97;;;9.60;;
9972;SDS011;5027;53.560;10.062;2022-10-17T15:54:53;9.67;;;8.17;;
9972;SDS011;5027;53.560;10.062;2022-10-17T15:57:26;8.37;;;7.50;;
9972;SDS011;5027;53.560;10.062;2022-10-17T15:59:56;10.63;;;8.03;;
9972;SDS011;5027;53.560;10.062;2022-10-17T16:02:24;9.73;;;8.20;;
9972;SDS011;5027;53.560;10.062;2022-10-17T16:04:51;7.47;;;6.73;;
9972;SDS011;5027;53.560;10.062;2022-10-17T16:07:18;10.33;;;7.63;;
9972;SDS011;5027;53.560;10.062;2022-10-17T16:09:46;9.57;;;8.00;;
9972;SDS011;5027;53.560;10.062;2022-10-17T16:12:14;7.93;;;6.90;;
9972;SDS011;5027;53.560;10.062;2022-10-17T16:14:42;12.07;;;8.03;;
9972;SDS011;5027;53.560;10.062;2022-10-17T16:17:11;8.30;;;7.17;;
9972;SDS011;5027;53.560;10.062;2022-10-17T16:19:40;9.00;;;7.53;;
9972;SDS011;5027;53.560;10.062;2022-10-17T16:22:16;10.67;;;7.00;;
9972;SDS011;5027;53.560;10.062;2022-10-17T16:24:46;10.57;;;7.47;;
9972;SDS011;5027;53.560;10.062;2022-10-17T16:27:12;7.17;;;6.57;;
9972;SDS011;5027;53.560;10.062;2022-10-17T16:29:39;9.10;;;6.77;;
9972;SDS011;5027;53.560;10.062;2022-10-17T16:32:06;8.10;;;7.40;;
9972;SDS011;5027;53.560;10.062;2022-10-17T16:34:34;8.87;;;7.03;;
9972;SDS011;5027;53.560;10.062;2022-10-17T16:37:00;8.27;;;7.20;;
9972;SDS011;5027;53.560;10.062;2022-10-17T16:39:27;8.20;;;7.40;;
9972;SDS011;5027;53.560;10.062;2022-10-17T16:41:58;10.57;;;7.87;;
9972;SDS011;5027;53.560;10.062;2022-10-17T16:44:25;8.93;;;8.00;;
9972;SDS011;5027;53.560;10.062;2022-10-17T16:46:51;9.50;;;8.30;;
9972;SDS011;5027;53.560;10.062;2022-10-17T16:49:18;8.73;;;7.17;;
9972;SDS011;5027;53.560;10.062;2022-10-17T16:51:45;8.70;;;7.80;;
9972;SDS011;5027;53.560;10.062;2022-10-17T16:54:11;10.30;;;7.47;;
9972;SDS011;5027;53.560;10.062;2022-10-17T16:56:38;8.50;;;7.40;;
9972;SDS011;5027;53.560;10.062;2022-10-17T16:59:05;8.60;;;7.77;;
9972;SDS011;5027;53.560;10.062;2022-10-17T17:01:31;9.63;;;7.93;;
9972;SDS011;5027;53.560;10.062;2022-10-17T17:03:58;8.60;;;7.77;;
9972;SDS011;5027;53.560;10.062;2022-10-17T17:06:26;10.00;;;7.73;;
9972;SDS011;5027;53.560;10.062;2022-10-17T17:08:54;11.53;;;8.33;;
9972;SDS011;5027;53.560;10.062;2022-10-17T17:11:22;10.50;;;8.13;;
9972;SDS011;5027;53.560;10.062;2022-10-17T17:13:50;8.97;;;8.00;;
9972;SDS011;5027;53.560;10.062;2022-10-17T17:16:21;10.83;;;8.30;;
9972;SDS011;5027;53.560;10.062;2022-10-17T17:18:52;9.10;;;8.20;;
9972;SDS011;5027;53.560;10.062;2022-10-17T17:21:30;11.47;;;8.77;;
9972;SDS011;5027;53.560;10.062;2022-10-17T17:23:58;10.17;;;9.10;;
9972;SDS011;5027;53.560;10.062;2022-10-17T17:26:28;10.00;;;9.00;;